sensor_id;sensor_type;location;lat;lon;timestamp;temperature;humidity
35085;SHT85;21267;51.032;6.998;2022-09-17T00:01:38;11.12;86.47
35085;SHT85;21267;51.032;6.998;2022-09-17T00:04:09;11.07;86.48
35085;SHT85;21267;51.032;6.998;2022-09-17T00:06:36;11.12;86.56
35085;SHT85;21267;51.032;6.998;2022-09-17T00:09:04;11.08;86.52
35085;SHT85;21267;51.032;6.998;2022-09-17T00:11:34;11.08;86.60
35085;SHT85;21267;51.032;6.998;2022-09-17T00:14:03;11.10;86.72
35085;SHT85;21267;51.032;6.998;2022-09-17T00:16:36;11.06;86.81
35085;SHT85;21267;51.032;6.998;2022-09-17T00:19:04;11.15;86.69
35085;SHT85;21267;51.032;6.998;2022-09-17T00:21:31;11.07;86.90
35085;SHT85;21267;51.032;6.998;2022-09-17T00:24:00;11.10;86.90
35085;SHT85;21267;51.032;6.998;2022-09-17T00:26:28;11.08;87.12
35085;SHT85;21267;51.032;6.998;2022-09-17T00:28:55;11.15;87.20
35085;SHT85;21267;51.032;6.998;2022-09-17T00:31:23;11.12;87.20
35085;SHT85;21267;51.032;6.998;2022-09-17T00:33:50;11.14;87.30
35085;SHT85;21267;51.032;6.998;2022-09-17T00:36:17;11.17;87.15
35085;SHT85;21267;51.032;6.998;2022-09-17T00:38:54;11.12;87.39
35085;SHT85;21267;51.032;6.998;2022-09-17T00:41:23;11.14;87.28
35085;SHT85;21267;51.032;6.998;2022-09-17T00:43:53;11.12;87.43
35085;SHT85;21267;51.032;6.998;2022-09-17T00:46:33;11.15;87.58
35085;SHT85;21267;51.032;6.998;2022-09-17T00:49:09;11.18;87.50
35085;SHT85;21267;51.032;6.998;2022-09-17T00:51:41;11.17;87.46
35085;SHT85;21267;51.032;6.998;2022-09-17T00:54:11;11.14;87.64
35085;SHT85;21267;51.032;6.998;2022-09-17T00:56:39;11.19;87.65
35085;SHT85;21267;51.032;6.998;2022-09-17T00:59:06;11.18;88.09
35085;SHT85;21267;51.032;6.998;2022-09-17T01:01:34;11.19;88.05
35085;SHT85;21267;51.032;6.998;2022-09-17T01:04:01;11.15;88.31
35085;SHT85;21267;51.032;6.998;2022-09-17T01:06:39;11.14;88.20
35085;SHT85;21267;51.032;6.998;2022-09-17T01:09:37;11.15;88.23
35085;SHT85;21267;51.032;6.998;2022-09-17T01:14:52;11.18;88.16
35085;SHT85;21267;51.032;6.998;2022-09-17T01:23:26;11.27;88.48
35085;SHT85;21267;51.032;6.998;2022-09-17T01:37:13;11.10;89.56
35085;SHT85;21267;51.032;6.998;2022-09-17T01:42:52;11.21;89.90
35085;SHT85;21267;51.032;6.998;2022-09-17T01:45:34;11.17;89.97
35085;SHT85;21267;51.032;6.998;2022-09-17T01:48:23;11.17;89.92
35085;SHT85;21267;51.032;6.998;2022-09-17T01:50:55;11.21;90.18
35085;SHT85;21267;51.032;6.998;2022-09-17T01:53:34;11.25;90.33
35085;SHT85;21267;51.032;6.998;2022-09-17T01:56:03;11.21;89.97
35085;SHT85;21267;51.032;6.998;2022-09-17T01:58:33;11.24;90.10
35085;SHT85;21267;51.032;6.998;2022-09-17T02:01:04;11.24;90.20
35085;SHT85;21267;51.032;6.998;2022-09-17T02:04:00;11.19;89.88
35085;SHT85;21267;51.032;6.998;2022-09-17T02:06:30;11.19;90.23
35085;SHT85;21267;51.032;6.998;2022-09-17T02:09:06;11.25;89.98
35085;SHT85;21267;51.032;6.998;2022-09-17T02:11:37;11.22;89.95
35085;SHT85;21267;51.032;6.998;2022-09-17T02:14:09;11.34;89.92
35085;SHT85;21267;51.032;6.998;2022-09-17T02:16:50;11.29;89.22
35085;SHT85;21267;51.032;6.998;2022-09-17T02:19:22;11.25;89.62
35085;SHT85;21267;51.032;6.998;2022-09-17T02:23:10;11.22;89.19
35085;SHT85;21267;51.032;6.998;2022-09-17T02:26:18;11.14;89.13
35085;SHT85;21267;51.032;6.998;2022-09-17T02:28:40;11.08;89.17
35085;SHT85;21267;51.032;6.998;2022-09-17T02:31:07;11.04;89.12
35085;SHT85;21267;51.032;6.998;2022-09-17T02:33:35;11.08;89.34
35085;SHT85;21267;51.032;6.998;2022-09-17T02:36:03;11.02;89.26
35085;SHT85;21267;51.032;6.998;2022-09-17T02:38:29;11.06;89.28
35085;SHT85;21267;51.032;6.998;2022-09-17T02:43:57;11.01;89.71
35085;SHT85;21267;51.032;6.998;2022-09-17T02:52:16;11.04;90.08
35085;SHT85;21267;51.032;6.998;2022-09-17T02:55:01;11.01;89.82
35085;SHT85;21267;51.032;6.998;2022-09-17T02:57:38;11.00;90.20
35085;SHT85;21267;51.032;6.998;2022-09-17T03:00:14;11.06;90.18
35085;SHT85;21267;51.032;6.998;2022-09-17T03:03:16;11.04;90.14
35085;SHT85;21267;51.032;6.998;2022-09-17T03:05:36;11.07;90.09
35085;SHT85;21267;51.032;6.998;2022-09-17T03:08:07;11.06;90.20
35085;SHT85;21267;51.032;6.998;2022-09-17T03:10:34;11.02;89.77
35085;SHT85;21267;51.032;6.998;2022-09-17T03:13:01;10.98;89.90
35085;SHT85;21267;51.032;6.998;2022-09-17T03:15:27;11.00;90.19
35085;SHT85;21267;51.032;6.998;2022-09-17T03:17:54;11.01;89.87
35085;SHT85;21267;51.032;6.998;2022-09-17T03:20:20;11.02;89.90
35085;SHT85;21267;51.032;6.998;2022-09-17T03:22:47;11.00;89.96
35085;SHT85;21267;51.032;6.998;2022-09-17T03:25:14;11.02;89.83
35085;SHT85;21267;51.032;6.998;2022-09-17T03:27:40;11.07;89.84
35085;SHT85;21267;51.032;6.998;2022-09-17T03:30:08;11.10;90.11
35085;SHT85;21267;51.032;6.998;2022-09-17T03:32:34;11.10;90.25
35085;SHT85;21267;51.032;6.998;2022-09-17T03:35:01;11.11;89.94
35085;SHT85;21267;51.032;6.998;2022-09-17T03:37:27;11.19;89.12
35085;SHT85;21267;51.032;6.998;2022-09-17T03:39:58;11.18;89.12
35085;SHT85;21267;51.032;6.998;2022-09-17T03:42:25;11.21;88.97
35085;SHT85;21267;51.032;6.998;2022-09-17T03:44:51;11.29;88.91
35085;SHT85;21267;51.032;6.998;2022-09-17T03:47:18;11.25;88.80
35085;SHT85;21267;51.032;6.998;2022-09-17T03:49:44;11.25;88.78
35085;SHT85;21267;51.032;6.998;2022-09-17T03:52:11;11.24;88.84
35085;SHT85;21267;51.032;6.998;2022-09-17T03:54:37;11.28;88.99
35085;SHT85;21267;51.032;6.998;2022-09-17T03:57:04;11.32;88.61
35085;SHT85;21267;51.032;6.998;2022-09-17T03:59:30;11.29;88.76
35085;SHT85;21267;51.032;6.998;2022-09-17T04:01:57;11.36;88.24
35085;SHT85;21267;51.032;6.998;2022-09-17T04:04:24;11.34;88.19
35085;SHT85;21267;51.032;6.998;2022-09-17T04:06:50;11.32;88.27
35085;SHT85;21267;51.032;6.998;2022-09-17T04:09:17;11.35;88.27
35085;SHT85;21267;51.032;6.998;2022-09-17T04:11:43;11.35;88.39
35085;SHT85;21267;51.032;6.998;2022-09-17T04:14:10;11.38;88.80
35085;SHT85;21267;51.032;6.998;2022-09-17T04:16:36;11.34;88.52
35085;SHT85;21267;51.032;6.998;2022-09-17T04:19:03;11.27;88.89
35085;SHT85;21267;51.032;6.998;2022-09-17T04:21:32;11.27;88.91
35085;SHT85;21267;51.032;6.998;2022-09-17T04:23:58;11.24;89.06
35085;SHT85;21267;51.032;6.998;2022-09-17T04:26:25;11.21;89.03
35085;SHT85;21267;51.032;6.998;2022-09-17T04:28:52;11.21;88.94
35085;SHT85;21267;51.032;6.998;2022-09-17T04:31:18;11.15;89.21
35085;SHT85;21267;51.032;6.998;2022-09-17T04:33:45;11.14;89.20
35085;SHT85;21267;51.032;6.998;2022-09-17T04:36:11;11.12;89.16
35085;SHT85;21267;51.032;6.998;2022-09-17T04:38:38;11.15;89.28
35085;SHT85;21267;51.032;6.998;2022-09-17T04:41:07;11.11;89.25
35085;SHT85;21267;51.032;6.998;2022-09-17T04:43:34;11.11;89.39
35085;SHT85;21267;51.032;6.998;2022-09-17T04:46:00;11.15;89.29
35085;SHT85;21267;51.032;6.998;2022-09-17T04:48:27;11.21;88.98
35085;SHT85;21267;51.032;6.998;2022-09-17T04:50:53;11.21;89.18
35085;SHT85;21267;51.032;6.998;2022-09-17T04:53:20;11.21;89.15
35085;SHT85;21267;51.032;6.998;2022-09-17T04:55:46;11.11;89.52
35085;SHT85;21267;51.032;6.998;2022-09-17T04:58:13;11.18;89.09
35085;SHT85;21267;51.032;6.998;2022-09-17T05:00:39;11.14;89.24
35085;SHT85;21267;51.032;6.998;2022-09-17T05:03:07;11.11;88.95
35085;SHT85;21267;51.032;6.998;2022-09-17T05:05:34;11.06;89.09
35085;SHT85;21267;51.032;6.998;2022-09-17T05:08:01;11.00;89.09
35085;SHT85;21267;51.032;6.998;2022-09-17T05:10:28;11.00;88.81
35085;SHT85;21267;51.032;6.998;2022-09-17T05:12:55;10.94;89.01
35085;SHT85;21267;51.032;6.998;2022-09-17T05:15:23;10.88;89.28
35085;SHT85;21267;51.032;6.998;2022-09-17T05:17:50;10.85;89.36
35085;SHT85;21267;51.032;6.998;2022-09-17T05:20:16;10.91;89.26
35085;SHT85;21267;51.032;6.998;2022-09-17T05:22:45;10.88;89.35
35085;SHT85;21267;51.032;6.998;2022-09-17T05:25:13;10.84;89.44
35085;SHT85;21267;51.032;6.998;2022-09-17T05:27:40;10.83;89.73
35085;SHT85;21267;51.032;6.998;2022-09-17T05:30:08;10.83;89.44
35085;SHT85;21267;51.032;6.998;2022-09-17T05:32:35;10.81;89.44
35085;SHT85;21267;51.032;6.998;2022-09-17T05:35:03;10.84;89.60
35085;SHT85;21267;51.032;6.998;2022-09-17T05:37:31;10.84;89.60
35085;SHT85;21267;51.032;6.998;2022-09-17T05:39:57;10.94;89.33
35085;SHT85;21267;51.032;6.998;2022-09-17T05:42:24;10.94;88.94
35085;SHT85;21267;51.032;6.998;2022-09-17T05:44:50;10.95;88.89
35085;SHT85;21267;51.032;6.998;2022-09-17T05:47:17;10.95;88.20
35085;SHT85;21267;51.032;6.998;2022-09-17T05:49:43;10.97;88.37
35085;SHT85;21267;51.032;6.998;2022-09-17T05:52:10;11.01;88.23
35085;SHT85;21267;51.032;6.998;2022-09-17T05:54:36;11.02;87.98
35085;SHT85;21267;51.032;6.998;2022-09-17T05:57:03;11.08;87.84
35085;SHT85;21267;51.032;6.998;2022-09-17T05:59:31;11.08;87.58
35085;SHT85;21267;51.032;6.998;2022-09-17T06:01:57;11.11;87.45
35085;SHT85;21267;51.032;6.998;2022-09-17T06:04:24;11.10;87.44
35085;SHT85;21267;51.032;6.998;2022-09-17T06:06:51;11.15;87.35
35085;SHT85;21267;51.032;6.998;2022-09-17T06:09:17;11.15;87.25
35085;SHT85;21267;51.032;6.998;2022-09-17T06:11:43;11.25;87.21
35085;SHT85;21267;51.032;6.998;2022-09-17T06:14:10;11.31;87.03
35085;SHT85;21267;51.032;6.998;2022-09-17T06:16:36;11.38;86.56
35085;SHT85;21267;51.032;6.998;2022-09-17T06:19:03;11.38;86.66
35085;SHT85;21267;51.032;6.998;2022-09-17T06:21:29;11.49;86.45
35085;SHT85;21267;51.032;6.998;2022-09-17T06:23:56;11.55;86.14
35085;SHT85;21267;51.032;6.998;2022-09-17T06:26:23;11.65;85.89
35085;SHT85;21267;51.032;6.998;2022-09-17T06:28:50;11.65;85.89
35085;SHT85;21267;51.032;6.998;2022-09-17T06:33:39;11.90;85.41
35085;SHT85;21267;51.032;6.998;2022-09-17T06:36:07;11.97;85.11
35085;SHT85;21267;51.032;6.998;2022-09-17T06:38:39;12.00;85.18
35085;SHT85;21267;51.032;6.998;2022-09-17T06:41:06;11.70;87.01
35085;SHT85;21267;51.032;6.998;2022-09-17T06:43:33;11.56;88.10
35085;SHT85;21267;51.032;6.998;2022-09-17T06:46:01;11.52;87.94
35085;SHT85;21267;51.032;6.998;2022-09-17T06:48:29;11.46;88.73
35085;SHT85;21267;51.032;6.998;2022-09-17T06:51:01;11.46;89.34
35085;SHT85;21267;51.032;6.998;2022-09-17T06:53:28;11.36;88.98
35085;SHT85;21267;51.032;6.998;2022-09-17T06:55:56;11.34;88.77
35085;SHT85;21267;51.032;6.998;2022-09-17T06:58:31;11.21;88.63
35085;SHT85;21267;51.032;6.998;2022-09-17T07:00:58;11.32;88.66
35085;SHT85;21267;51.032;6.998;2022-09-17T07:03:28;11.32;88.69
35085;SHT85;21267;51.032;6.998;2022-09-17T07:05:56;11.28;88.81
35085;SHT85;21267;51.032;6.998;2022-09-17T07:08:23;11.27;88.72
35085;SHT85;21267;51.032;6.998;2022-09-17T07:10:49;11.28;88.59
35085;SHT85;21267;51.032;6.998;2022-09-17T07:13:16;11.32;88.54
35085;SHT85;21267;51.032;6.998;2022-09-17T07:15:42;11.49;88.12
35085;SHT85;21267;51.032;6.998;2022-09-17T07:18:10;11.66;86.89
35085;SHT85;21267;51.032;6.998;2022-09-17T07:20:37;11.96;86.11
35085;SHT85;21267;51.032;6.998;2022-09-17T07:23:04;12.27;85.90
35085;SHT85;21267;51.032;6.998;2022-09-17T07:25:30;12.28;85.62
35085;SHT85;21267;51.032;6.998;2022-09-17T07:27:57;12.22;85.60
35085;SHT85;21267;51.032;6.998;2022-09-17T07:30:25;12.24;86.21
35085;SHT85;21267;51.032;6.998;2022-09-17T07:32:51;12.22;84.97
35085;SHT85;21267;51.032;6.998;2022-09-17T07:35:18;12.18;85.13
35085;SHT85;21267;51.032;6.998;2022-09-17T07:37:45;12.20;85.11
35085;SHT85;21267;51.032;6.998;2022-09-17T07:40:12;12.31;84.44
35085;SHT85;21267;51.032;6.998;2022-09-17T07:42:48;12.38;83.96
35085;SHT85;21267;51.032;6.998;2022-09-17T07:45:15;12.31;84.10
35085;SHT85;21267;51.032;6.998;2022-09-17T07:47:42;12.44;83.00
35085;SHT85;21267;51.032;6.998;2022-09-17T07:50:09;12.88;82.20
35085;SHT85;21267;51.032;6.998;2022-09-17T07:52:36;13.02;81.43
35085;SHT85;21267;51.032;6.998;2022-09-17T07:55:03;12.82;81.42
35085;SHT85;21267;51.032;6.998;2022-09-17T07:57:29;12.73;81.57
35085;SHT85;21267;51.032;6.998;2022-09-17T07:59:56;12.75;81.72
35085;SHT85;21267;51.032;6.998;2022-09-17T08:02:23;13.24;80.57
35085;SHT85;21267;51.032;6.998;2022-09-17T08:04:50;14.04;78.20
35085;SHT85;21267;51.032;6.998;2022-09-17T08:07:16;14.38;77.89
35085;SHT85;21267;51.032;6.998;2022-09-17T08:09:43;14.63;75.57
35085;SHT85;21267;51.032;6.998;2022-09-17T08:12:10;14.84;74.46
35085;SHT85;21267;51.032;6.998;2022-09-17T08:14:36;14.96;74.12
35085;SHT85;21267;51.032;6.998;2022-09-17T08:17:06;15.16;73.30
35085;SHT85;21267;51.032;6.998;2022-09-17T08:19:34;15.14;71.59
35085;SHT85;21267;51.032;6.998;2022-09-17T08:22:00;15.67;72.08
35085;SHT85;21267;51.032;6.998;2022-09-17T08:24:27;15.56;69.79
35085;SHT85;21267;51.032;6.998;2022-09-17T08:26:53;15.70;69.56
35085;SHT85;21267;51.032;6.998;2022-09-17T08:29:20;15.42;70.43
35085;SHT85;21267;51.032;6.998;2022-09-17T08:31:46;15.05;71.59
35085;SHT85;21267;51.032;6.998;2022-09-17T08:34:13;14.83;71.03
35085;SHT85;21267;51.032;6.998;2022-09-17T08:36:40;14.92;70.61
35085;SHT85;21267;51.032;6.998;2022-09-17T08:39:06;14.96;70.59
35085;SHT85;21267;51.032;6.998;2022-09-17T08:41:44;15.66;68.17
35085;SHT85;21267;51.032;6.998;2022-09-17T08:44:26;15.96;67.73
35085;SHT85;21267;51.032;6.998;2022-09-17T08:47:21;16.28;66.15
35085;SHT85;21267;51.032;6.998;2022-09-17T08:49:53;15.77;68.53
35085;SHT85;21267;51.032;6.998;2022-09-17T08:52:45;16.42;66.88
35085;SHT85;21267;51.032;6.998;2022-09-17T09:06:57;15.11;67.78
35085;SHT85;21267;51.032;6.998;2022-09-17T09:09:29;15.40;67.70
35085;SHT85;21267;51.032;6.998;2022-09-17T09:12:02;15.32;67.81
35085;SHT85;21267;51.032;6.998;2022-09-17T09:14:35;14.87;67.88
35085;SHT85;21267;51.032;6.998;2022-09-17T09:17:07;15.47;67.02
35085;SHT85;21267;51.032;6.998;2022-09-17T09:19:43;15.67;66.55
35085;SHT85;21267;51.032;6.998;2022-09-17T09:22:13;16.66;63.99
35085;SHT85;21267;51.032;6.998;2022-09-17T09:27:37;16.28;63.04
35085;SHT85;21267;51.032;6.998;2022-09-17T09:30:08;15.08;66.13
35085;SHT85;21267;51.032;6.998;2022-09-17T09:35:30;15.78;63.57
35085;SHT85;21267;51.032;6.998;2022-09-17T09:41:45;17.14;61.28
35085;SHT85;21267;51.032;6.998;2022-09-17T09:43:49;16.21;61.15
35085;SHT85;21267;51.032;6.998;2022-09-17T09:49:33;16.04;62.74
35085;SHT85;21267;51.032;6.998;2022-09-17T09:52:53;15.89;62.90
35085;SHT85;21267;51.032;6.998;2022-09-17T10:00:37;17.65;58.56
35085;SHT85;21267;51.032;6.998;2022-09-17T10:05:57;17.68;56.69
35085;SHT85;21267;51.032;6.998;2022-09-17T10:08:25;16.80;59.36
35085;SHT85;21267;51.032;6.998;2022-09-17T10:11:05;15.76;63.64
35085;SHT85;21267;51.032;6.998;2022-09-17T10:13:41;15.02;66.18
35085;SHT85;21267;51.032;6.998;2022-09-17T10:16:19;14.98;66.54
35085;SHT85;21267;51.032;6.998;2022-09-17T10:18:47;15.67;64.04
35085;SHT85;21267;51.032;6.998;2022-09-17T10:21:41;15.76;63.33
35085;SHT85;21267;51.032;6.998;2022-09-17T10:24:27;15.94;63.31
35085;SHT85;21267;51.032;6.998;2022-09-17T10:27:00;16.01;62.97
35085;SHT85;21267;51.032;6.998;2022-09-17T10:29:30;16.22;62.94
35085;SHT85;21267;51.032;6.998;2022-09-17T10:31:58;15.42;63.98
35085;SHT85;21267;51.032;6.998;2022-09-17T10:34:27;15.64;64.02
35085;SHT85;21267;51.032;6.998;2022-09-17T10:36:55;17.10;61.07
35085;SHT85;21267;51.032;6.998;2022-09-17T10:41:53;17.78;57.04
35085;SHT85;21267;51.032;6.998;2022-09-17T10:44:23;17.79;56.43
35085;SHT85;21267;51.032;6.998;2022-09-17T10:46:50;18.13;55.32
35085;SHT85;21267;51.032;6.998;2022-09-17T10:49:29;17.96;54.67
35085;SHT85;21267;51.032;6.998;2022-09-17T10:52:11;16.94;57.60
35085;SHT85;21267;51.032;6.998;2022-09-17T10:58:02;18.05;56.26
35085;SHT85;21267;51.032;6.998;2022-09-17T11:12:27;17.99;56.82
35085;SHT85;21267;51.032;6.998;2022-09-17T11:20:28;17.17;58.48
35085;SHT85;21267;51.032;6.998;2022-09-17T11:25:46;17.31;56.62
35085;SHT85;21267;51.032;6.998;2022-09-17T11:28:42;17.78;56.46
35085;SHT85;21267;51.032;6.998;2022-09-17T11:31:47;16.96;56.99
35085;SHT85;21267;51.032;6.998;2022-09-17T11:37:03;17.07;57.71
35085;SHT85;21267;51.032;6.998;2022-09-17T11:39:57;16.80;56.54
35085;SHT85;21267;51.032;6.998;2022-09-17T11:42:30;16.39;55.58
35085;SHT85;21267;51.032;6.998;2022-09-17T11:45:04;16.42;56.89
35085;SHT85;21267;51.032;6.998;2022-09-17T11:47:40;16.41;57.93
35085;SHT85;21267;51.032;6.998;2022-09-17T11:52:45;15.04;67.29
35085;SHT85;21267;51.032;6.998;2022-09-17T11:55:30;13.79;76.09
35085;SHT85;21267;51.032;6.998;2022-09-17T11:58:01;13.48;80.54
35085;SHT85;21267;51.032;6.998;2022-09-17T12:00:36;12.72;82.37
35085;SHT85;21267;51.032;6.998;2022-09-17T12:03:17;12.14;82.38
35085;SHT85;21267;51.032;6.998;2022-09-17T12:05:51;12.17;80.97
35085;SHT85;21267;51.032;6.998;2022-09-17T12:08:44;13.00;79.09
35085;SHT85;21267;51.032;6.998;2022-09-17T12:11:33;13.43;80.62
35085;SHT85;21267;51.032;6.998;2022-09-17T12:14:12;13.96;79.39
35085;SHT85;21267;51.032;6.998;2022-09-17T12:16:44;14.83;76.21
35085;SHT85;21267;51.032;6.998;2022-09-17T12:19:24;15.33;76.08
35085;SHT85;21267;51.032;6.998;2022-09-17T12:21:55;15.49;73.99
35085;SHT85;21267;51.032;6.998;2022-09-17T12:24:25;16.05;70.89
35085;SHT85;21267;51.032;6.998;2022-09-17T12:27:09;16.11;71.20
35085;SHT85;21267;51.032;6.998;2022-09-17T12:30:07;17.10;68.62
35085;SHT85;21267;51.032;6.998;2022-09-17T12:40:57;18.06;66.84
35085;SHT85;21267;51.032;6.998;2022-09-17T12:57:15;16.79;64.14
35085;SHT85;21267;51.032;6.998;2022-09-17T12:59:56;15.96;65.29
35085;SHT85;21267;51.032;6.998;2022-09-17T13:13:29;12.44;85.28
35085;SHT85;21267;51.032;6.998;2022-09-17T13:16:07;12.65;85.64
35085;SHT85;21267;51.032;6.998;2022-09-17T13:21:33;12.66;85.89
35085;SHT85;21267;51.032;6.998;2022-09-17T13:24:16;12.59;85.92
35085;SHT85;21267;51.032;6.998;2022-09-17T13:26:43;12.45;83.89
35085;SHT85;21267;51.032;6.998;2022-09-17T13:37:41;13.28;83.25
35085;SHT85;21267;51.032;6.998;2022-09-17T13:40:23;13.04;81.12
35085;SHT85;21267;51.032;6.998;2022-09-17T13:42:55;13.13;80.80
35085;SHT85;21267;51.032;6.998;2022-09-17T13:45:24;14.29;78.44
35085;SHT85;21267;51.032;6.998;2022-09-17T13:47:57;15.33;76.89
35085;SHT85;21267;51.032;6.998;2022-09-17T13:50:34;15.87;72.27
35085;SHT85;21267;51.032;6.998;2022-09-17T13:55:46;16.46;70.40
35085;SHT85;21267;51.032;6.998;2022-09-17T13:58:25;17.32;71.92
35085;SHT85;21267;51.032;6.998;2022-09-17T14:05:54;17.17;70.57
35085;SHT85;21267;51.032;6.998;2022-09-17T14:08:27;17.86;67.72
35085;SHT85;21267;51.032;6.998;2022-09-17T14:10:58;18.24;66.15
35085;SHT85;21267;51.032;6.998;2022-09-17T14:13:40;18.63;64.92
35085;SHT85;21267;51.032;6.998;2022-09-17T14:29:49;17.26;69.19
35085;SHT85;21267;51.032;6.998;2022-09-17T14:37:50;16.11;72.84
35085;SHT85;21267;51.032;6.998;2022-09-17T14:40:19;15.67;74.47
35085;SHT85;21267;51.032;6.998;2022-09-17T14:42:49;15.36;75.40
35085;SHT85;21267;51.032;6.998;2022-09-17T14:45:41;14.81;71.97
35085;SHT85;21267;51.032;6.998;2022-09-17T14:48:29;14.77;72.03
35085;SHT85;21267;51.032;6.998;2022-09-17T14:53:49;14.01;73.02
35085;SHT85;21267;51.032;6.998;2022-09-17T14:56:32;14.77;70.86
35085;SHT85;21267;51.032;6.998;2022-09-17T14:59:00;15.15;68.82
35085;SHT85;21267;51.032;6.998;2022-09-17T15:01:28;14.74;69.47
35085;SHT85;21267;51.032;6.998;2022-09-17T15:06:41;14.40;71.71
35085;SHT85;21267;51.032;6.998;2022-09-17T15:09:20;14.27;72.07
35085;SHT85;21267;51.032;6.998;2022-09-17T15:11:49;13.89;74.20
35085;SHT85;21267;51.032;6.998;2022-09-17T15:14:19;13.99;74.60
35085;SHT85;21267;51.032;6.998;2022-09-17T15:16:48;14.09;74.52
35085;SHT85;21267;51.032;6.998;2022-09-17T15:19:29;14.61;73.01
35085;SHT85;21267;51.032;6.998;2022-09-17T15:22:04;15.57;69.82
35085;SHT85;21267;51.032;6.998;2022-09-17T15:24:42;16.63;67.72
35085;SHT85;21267;51.032;6.998;2022-09-17T15:27:18;17.07;65.75
35085;SHT85;21267;51.032;6.998;2022-09-17T15:29:50;17.28;64.90
35085;SHT85;21267;51.032;6.998;2022-09-17T15:32:19;17.23;64.72
35085;SHT85;21267;51.032;6.998;2022-09-17T15:37:54;17.15;64.40
35085;SHT85;21267;51.032;6.998;2022-09-17T15:40:41;16.28;67.23
35085;SHT85;21267;51.032;6.998;2022-09-17T15:45:42;15.71;69.17
35085;SHT85;21267;51.032;6.998;2022-09-17T15:50:55;15.49;68.61
35085;SHT85;21267;51.032;6.998;2022-09-17T15:53:31;15.19;69.02
35085;SHT85;21267;51.032;6.998;2022-09-17T15:56:06;15.02;67.82
35085;SHT85;21267;51.032;6.998;2022-09-17T15:58:52;14.92;67.93
35085;SHT85;21267;51.032;6.998;2022-09-17T16:08:55;16.76;62.58
35085;SHT85;21267;51.032;6.998;2022-09-17T16:11:25;16.46;62.06
35085;SHT85;21267;51.032;6.998;2022-09-17T16:13:54;15.76;63.77
35085;SHT85;21267;51.032;6.998;2022-09-17T16:16:29;15.70;64.19
35085;SHT85;21267;51.032;6.998;2022-09-17T16:18:58;15.35;64.52
35085;SHT85;21267;51.032;6.998;2022-09-17T16:21:24;15.16;65.06
35085;SHT85;21267;51.032;6.998;2022-09-17T16:23:51;15.15;65.80
35085;SHT85;21267;51.032;6.998;2022-09-17T16:26:23;15.15;66.25
35085;SHT85;21267;51.032;6.998;2022-09-17T16:28:52;15.06;66.04
35085;SHT85;21267;51.032;6.998;2022-09-17T16:31:20;15.01;66.19
35085;SHT85;21267;51.032;6.998;2022-09-17T16:33:46;14.88;65.89
35085;SHT85;21267;51.032;6.998;2022-09-17T16:36:16;14.95;65.55
35085;SHT85;21267;51.032;6.998;2022-09-17T16:38:42;14.96;65.69
35085;SHT85;21267;51.032;6.998;2022-09-17T16:41:09;14.96;65.82
35085;SHT85;21267;51.032;6.998;2022-09-17T16:43:36;15.26;65.60
35085;SHT85;21267;51.032;6.998;2022-09-17T16:46:06;15.26;64.93
35085;SHT85;21267;51.032;6.998;2022-09-17T16:48:33;15.40;64.76
35085;SHT85;21267;51.032;6.998;2022-09-17T16:51:02;15.25;64.74
35085;SHT85;21267;51.032;6.998;2022-09-17T16:53:31;15.05;65.75
35085;SHT85;21267;51.032;6.998;2022-09-17T16:55:59;15.11;65.75
35085;SHT85;21267;51.032;6.998;2022-09-17T16:58:25;15.06;65.23
35085;SHT85;21267;51.032;6.998;2022-09-17T17:00:52;14.94;64.96
35085;SHT85;21267;51.032;6.998;2022-09-17T17:03:18;14.85;62.51
35085;SHT85;21267;51.032;6.998;2022-09-17T17:05:45;14.81;61.17
35085;SHT85;21267;51.032;6.998;2022-09-17T17:08:11;14.74;61.13
35085;SHT85;21267;51.032;6.998;2022-09-17T17:10:39;14.71;61.54
35085;SHT85;21267;51.032;6.998;2022-09-17T17:13:06;14.56;62.21
35085;SHT85;21267;51.032;6.998;2022-09-17T17:15:33;14.32;62.74
35085;SHT85;21267;51.032;6.998;2022-09-17T17:17:59;14.22;63.58
35085;SHT85;21267;51.032;6.998;2022-09-17T17:20:26;14.09;64.48
35085;SHT85;21267;51.032;6.998;2022-09-17T17:22:53;13.99;65.09
35085;SHT85;21267;51.032;6.998;2022-09-17T17:25:20;13.99;65.64
35085;SHT85;21267;51.032;6.998;2022-09-17T17:27:48;13.92;66.24
35085;SHT85;21267;51.032;6.998;2022-09-17T17:30:15;13.82;66.13
35085;SHT85;21267;51.032;6.998;2022-09-17T17:32:43;13.67;67.07
35085;SHT85;21267;51.032;6.998;2022-09-17T17:35:14;13.61;67.67
35085;SHT85;21267;51.032;6.998;2022-09-17T17:37:41;13.51;67.84
35085;SHT85;21267;51.032;6.998;2022-09-17T17:40:08;13.41;68.66
35085;SHT85;21267;51.032;6.998;2022-09-17T17:42:36;13.48;68.39
35085;SHT85;21267;51.032;6.998;2022-09-17T17:45:04;13.36;69.23
35085;SHT85;21267;51.032;6.998;2022-09-17T17:47:32;13.36;68.86
35085;SHT85;21267;51.032;6.998;2022-09-17T17:49:58;13.28;69.33
35085;SHT85;21267;51.032;6.998;2022-09-17T17:52:25;13.22;69.43
35085;SHT85;21267;51.032;6.998;2022-09-17T17:58:38;13.26;69.90
35085;SHT85;21267;51.032;6.998;2022-09-17T18:01:16;13.36;69.69
35085;SHT85;21267;51.032;6.998;2022-09-17T18:03:43;13.40;70.08
35085;SHT85;21267;51.032;6.998;2022-09-17T18:06:10;13.36;69.65
35085;SHT85;21267;51.032;6.998;2022-09-17T18:08:38;13.34;69.42
35085;SHT85;21267;51.032;6.998;2022-09-17T18:11:06;13.34;69.34
35085;SHT85;21267;51.032;6.998;2022-09-17T18:13:35;13.41;68.94
35085;SHT85;21267;51.032;6.998;2022-09-17T18:16:03;13.40;68.92
35085;SHT85;21267;51.032;6.998;2022-09-17T18:18:34;13.41;68.96
35085;SHT85;21267;51.032;6.998;2022-09-17T18:21:06;13.43;68.70
35085;SHT85;21267;51.032;6.998;2022-09-17T18:23:34;13.48;68.78
35085;SHT85;21267;51.032;6.998;2022-09-17T18:26:02;13.53;68.51
35085;SHT85;21267;51.032;6.998;2022-09-17T18:28:30;13.54;68.47
35085;SHT85;21267;51.032;6.998;2022-09-17T18:31:05;13.59;68.37
35085;SHT85;21267;51.032;6.998;2022-09-17T18:33:33;13.65;68.35
35085;SHT85;21267;51.032;6.998;2022-09-17T18:36:03;13.59;68.56
35085;SHT85;21267;51.032;6.998;2022-09-17T18:38:30;13.62;68.62
35085;SHT85;21267;51.032;6.998;2022-09-17T18:41:02;13.51;69.05
35085;SHT85;21267;51.032;6.998;2022-09-17T18:43:29;13.47;69.18
35085;SHT85;21267;51.032;6.998;2022-09-17T18:45:56;13.41;69.53
35085;SHT85;21267;51.032;6.998;2022-09-17T18:48:23;13.36;69.89
35085;SHT85;21267;51.032;6.998;2022-09-17T18:51:03;13.37;70.16
35085;SHT85;21267;51.032;6.998;2022-09-17T18:53:33;13.44;69.96
35085;SHT85;21267;51.032;6.998;2022-09-17T18:56:25;13.38;70.42
35085;SHT85;21267;51.032;6.998;2022-09-17T18:58:54;13.37;70.60
35085;SHT85;21267;51.032;6.998;2022-09-17T19:01:24;13.44;70.73
35085;SHT85;21267;51.032;6.998;2022-09-17T19:03:52;13.51;70.84
35085;SHT85;21267;51.032;6.998;2022-09-17T19:06:18;13.50;71.30
35085;SHT85;21267;51.032;6.998;2022-09-17T19:08:45;13.58;71.21